createdAt,value
2019-02-22T00:02:13.458Z,107.80
2019-02-22T00:07:15.098Z,104.17
2019-02-22T00:12:16.769Z,114.23
2019-02-22T00:17:18.320Z,117.93
2019-02-22T00:22:19.931Z,124.33
2019-02-22T00:27:22.109Z,119.17
2019-02-22T00:32:23.944Z,117.60
2019-02-22T00:37:25.645Z,118.17
2019-02-22T00:42:27.888Z,113.57
2019-02-22T00:47:29.421Z,107.40
2019-02-22T00:52:31.999Z,100.13
2019-02-22T00:57:33.625Z,98.87
2019-02-22T01:02:35.582Z,94.53
2019-02-22T01:07:37.519Z,101.07
2019-02-22T01:12:39.119Z,88.93
2019-02-22T01:17:41.123Z,92.90
2019-02-22T01:22:42.681Z,80.20
2019-02-22T01:27:44.231Z,88.53
2019-02-22T01:32:45.785Z,77.00
2019-02-22T01:37:47.692Z,85.10
2019-02-22T01:42:49.309Z,85.77
2019-02-22T01:47:50.899Z,86.77
2019-02-22T01:52:52.459Z,81.73
2019-02-22T01:57:54.542Z,75.30
2019-02-22T02:02:56.088Z,87.63
2019-02-22T02:07:57.718Z,96.13
2019-02-22T02:12:59.341Z,100.07
2019-02-22T02:18:00.827Z,77.87
2019-02-22T02:23:02.403Z,90.10
2019-02-22T02:28:04.009Z,70.80
2019-02-22T02:33:05.643Z,78.67
2019-02-22T02:38:07.295Z,72.60
2019-02-22T02:43:09.318Z,77.93
2019-02-22T02:48:10.882Z,78.53
2019-02-22T02:53:12.512Z,78.30
2019-02-22T02:58:14.040Z,69.57
2019-02-22T03:03:16.092Z,73.67
2019-02-22T03:08:17.631Z,74.37
2019-02-22T03:13:19.285Z,71.20
2019-02-22T03:18:20.878Z,67.20
2019-02-22T03:23:22.482Z,74.23
2019-02-22T03:28:24.082Z,78.93
2019-02-22T03:33:25.819Z,78.37
2019-02-22T03:38:27.335Z,76.60
2019-02-22T03:43:28.974Z,78.93
2019-02-22T03:48:30.528Z,70.13
2019-02-22T03:53:32.143Z,73.07
2019-02-22T03:58:33.743Z,69.50
2019-02-22T04:03:35.371Z,77.13
2019-02-22T04:08:36.865Z,78.20
2019-02-22T04:13:38.913Z,90.13
2019-02-22T04:18:40.450Z,79.97
2019-02-22T04:23:42.423Z,83.33
2019-02-22T04:28:44.010Z,84.27
2019-02-22T04:33:45.578Z,91.83
2019-02-22T04:38:47.189Z,91.43
2019-02-22T04:43:48.793Z,83.83
2019-02-22T04:48:50.727Z,86.00
2019-02-22T04:53:52.650Z,77.27
2019-02-22T04:58:54.192Z,78.67
2019-02-22T05:03:56.266Z,74.37
2019-02-22T05:08:57.791Z,77.30
2019-02-22T05:13:59.354Z,78.97
2019-02-22T05:19:00.935Z,75.27
2019-02-22T05:24:02.494Z,74.03
2019-02-22T05:29:04.051Z,71.43
2019-02-22T05:34:05.684Z,74.00
2019-02-22T05:39:18.557Z,70.47
2019-02-22T05:44:10.958Z,70.37
2019-02-22T05:49:12.716Z,75.90
2019-02-22T05:54:14.500Z,79.33
2019-02-22T05:59:16.063Z,63.57
2019-02-22T06:04:17.665Z,76.73
2019-02-22T06:09:19.779Z,68.80
2019-02-22T06:14:21.360Z,66.60
2019-02-22T06:19:22.940Z,65.00
2019-02-22T06:24:24.750Z,68.07
2019-02-22T06:29:26.380Z,63.50
2019-02-22T06:34:27.960Z,64.37
2019-02-22T06:39:29.686Z,61.13
2019-02-22T06:44:31.235Z,64.73
2019-02-22T06:49:32.894Z,60.03
2019-02-22T06:54:35.230Z,59.00
2019-02-22T06:59:37.087Z,70.50
2019-02-22T07:04:38.690Z,65.73
2019-02-22T07:09:40.382Z,61.70
2019-02-22T07:14:41.937Z,62.40
2019-02-22T07:19:43.582Z,61.93
2019-02-22T07:24:45.099Z,71.37
2019-02-22T07:29:46.707Z,65.43
2019-02-22T07:34:48.671Z,78.80
2019-02-22T07:39:50.223Z,68.30
2019-02-22T07:44:51.816Z,68.97
2019-02-22T07:49:53.474Z,66.10
2019-02-22T07:54:55.024Z,69.80
2019-02-22T07:59:56.579Z,65.53
2019-02-22T08:04:58.115Z,60.67
2019-02-22T08:09:59.680Z,62.60
2019-02-22T08:15:03.111Z,65.37
2019-02-22T08:20:04.883Z,59.03
2019-02-22T08:25:06.976Z,58.13
2019-02-22T08:30:08.858Z,59.17
2019-02-22T08:35:10.447Z,63.30
2019-02-22T08:40:12.395Z,54.70
2019-02-22T08:45:13.983Z,58.90
2019-02-22T08:50:15.524Z,56.97
2019-02-22T08:55:17.106Z,52.53
2019-02-22T09:00:18.622Z,57.17
2019-02-22T09:05:20.257Z,57.30
2019-02-22T09:10:22.265Z,57.57
2019-02-22T09:15:23.838Z,56.17
2019-02-22T09:20:25.449Z,61.60
2019-02-22T09:25:26.937Z,58.47
2019-02-22T09:30:28.490Z,61.53
2019-02-22T09:35:30.051Z,59.87
2019-02-22T09:40:32.133Z,61.30
2019-02-22T09:45:33.705Z,64.73
2019-02-22T09:50:35.263Z,70.10
2019-02-22T09:55:36.854Z,71.70
2019-02-22T10:00:38.399Z,59.07
2019-02-22T10:05:39.969Z,62.23
2019-02-22T10:10:41.583Z,63.00
2019-02-22T10:15:43.406Z,62.20
2019-02-22T10:20:45.049Z,60.80
2019-02-22T10:25:46.587Z,62.07
2019-02-22T10:30:48.145Z,56.33
2019-02-22T10:35:49.703Z,64.27
2019-02-22T10:40:51.301Z,58.00
2019-02-22T10:45:52.854Z,62.40
2019-02-22T10:50:54.413Z,61.37
2019-02-22T10:55:56.307Z,58.77
2019-02-22T11:00:57.930Z,59.67
2019-02-22T11:05:59.491Z,60.40
2019-02-22T11:11:01.204Z,64.73
2019-02-22T11:16:02.745Z,61.80
2019-02-22T11:21:04.276Z,67.40
2019-02-22T11:26:06.303Z,64.83
2019-02-22T11:31:07.839Z,59.73
2019-02-22T11:36:09.681Z,67.10
2019-02-22T11:41:11.250Z,60.80
2019-02-22T11:46:12.861Z,58.83
2019-02-22T11:51:14.455Z,61.33
2019-02-22T11:56:16.009Z,56.60
2019-02-22T12:01:17.838Z,59.47
2019-02-22T12:06:19.362Z,53.90
2019-02-22T12:11:20.934Z,54.67
2019-02-22T12:16:22.926Z,57.33
2019-02-22T12:21:24.498Z,62.25
2019-02-22T12:26:26.048Z,56.50
2019-02-22T12:31:27.625Z,62.20
2019-02-22T12:36:29.535Z,59.00
2019-02-22T12:41:31.146Z,55.23
2019-02-22T12:46:32.676Z,59.93
2019-02-22T12:51:34.265Z,55.20
2019-02-22T13:01:39.449Z,62.77
2019-02-22T13:06:41.048Z,60.35
2019-02-22T13:11:42.657Z,66.55
2019-02-22T13:16:44.204Z,72.13
2019-02-22T13:21:45.843Z,77.00
2019-02-22T13:26:47.457Z,74.67
2019-02-22T13:31:49.030Z,67.53
2019-02-22T13:36:50.658Z,73.43
2019-02-22T13:41:52.207Z,62.37
2019-02-22T13:46:55.774Z,50.77
2019-02-22T13:51:57.327Z,39.40
2019-02-22T13:56:58.869Z,45.50
2019-02-22T14:02:01.132Z,46.53
2019-02-22T14:07:03.174Z,54.73
2019-02-22T14:12:04.738Z,52.30
2019-02-22T14:17:06.285Z,58.50
2019-02-22T14:22:07.809Z,53.83
2019-02-22T14:27:09.931Z,56.97
2019-02-22T14:32:11.556Z,58.00
2019-02-22T14:37:13.104Z,61.97
2019-02-22T14:42:14.676Z,59.67
2019-02-22T14:47:16.229Z,57.13
2019-02-22T14:52:17.838Z,65.73
2019-02-22T14:57:19.424Z,60.13
2019-02-22T15:02:20.999Z,62.60
2019-02-22T15:07:22.644Z,60.83
2019-02-22T15:12:24.852Z,63.57
2019-02-22T15:17:27.398Z,60.63
2019-02-22T15:22:32.227Z,69.63
2019-02-22T15:27:36.259Z,66.77
2019-02-22T15:32:37.371Z,69.17
2019-02-22T15:37:39.013Z,65.23
2019-02-22T15:42:40.814Z,68.67
2019-02-22T15:47:42.427Z,74.47
2019-02-22T15:52:44.545Z,69.17
2019-02-22T15:57:46.273Z,82.77
2019-02-22T16:02:48.381Z,81.37
2019-02-22T16:07:50.345Z,84.77
2019-02-22T16:12:51.901Z,74.77
2019-02-22T16:17:53.640Z,83.90
2019-02-22T16:22:55.266Z,74.53
2019-02-22T16:27:56.804Z,80.37
2019-02-22T16:32:58.413Z,78.10
2019-02-22T16:38:00.206Z,73.03
2019-02-22T16:43:02.129Z,84.33
2019-02-22T16:48:04.265Z,83.40
2019-02-22T16:53:05.832Z,75.37
2019-02-22T16:58:07.783Z,73.37
2019-02-22T17:03:09.469Z,76.53
2019-02-22T17:08:11.032Z,76.47
2019-02-22T17:13:12.592Z,82.17
2019-02-22T17:18:14.595Z,83.23
2019-02-22T17:23:16.170Z,78.50
2019-02-22T17:28:18.078Z,80.83
2019-02-22T17:33:19.665Z,74.37
2019-02-22T17:38:21.266Z,78.03
2019-02-22T17:43:23.707Z,75.37
2019-02-22T17:48:25.259Z,77.10
2019-02-22T17:53:27.014Z,75.53
2019-02-22T17:58:28.761Z,74.50
2019-02-22T18:03:30.430Z,63.07
2019-02-22T18:08:32.415Z,62.77
2019-02-22T18:13:34.728Z,66.00
2019-02-22T18:18:36.771Z,67.60
2019-02-22T18:23:38.410Z,65.57
2019-02-22T18:28:40.043Z,67.50
2019-02-22T18:33:41.978Z,58.57
2019-02-22T18:38:43.644Z,58.43
2019-02-22T18:43:45.560Z,55.70
2019-02-22T18:48:47.221Z,55.57
2019-02-22T18:53:49.357Z,50.90
2019-02-22T18:58:51.361Z,51.57
2019-02-22T19:03:53.011Z,52.10
2019-02-22T19:08:54.713Z,47.07
2019-02-22T19:13:56.304Z,53.87
2019-02-22T19:18:57.892Z,60.70
2019-02-22T19:23:59.487Z,53.83
2019-02-22T19:29:01.204Z,56.53
2019-02-22T19:34:03.162Z,55.33
2019-02-22T19:39:05.165Z,50.23
2019-02-22T19:44:06.816Z,56.73
2019-02-22T19:49:08.500Z,46.87
2019-02-22T19:54:10.065Z,60.33
2019-02-22T19:59:12.723Z,60.97
2019-02-22T20:04:14.660Z,51.60
2019-02-22T20:09:16.502Z,56.43
2019-02-22T20:14:18.464Z,47.93
2019-02-22T20:19:20.618Z,50.70
2019-02-22T20:24:23.445Z,51.13
2019-02-22T20:29:25.340Z,54.30
2019-02-22T20:34:29.035Z,43.03
2019-02-22T20:39:30.760Z,48.47
2019-02-22T20:44:32.405Z,43.27
2019-02-22T20:49:34.097Z,47.33
2019-02-22T20:54:35.806Z,43.97
2019-02-22T20:59:37.488Z,43.27
2019-02-22T21:04:39.114Z,40.00
2019-02-22T21:09:41.112Z,38.10
2019-02-22T21:14:43.055Z,38.63
2019-02-22T21:19:44.645Z,42.43
2019-02-22T21:24:46.630Z,41.27
2019-02-22T21:29:48.197Z,40.20
2019-02-22T21:34:49.775Z,44.20
2019-02-22T21:39:51.429Z,44.27
2019-02-22T21:44:53.049Z,41.00
2019-02-22T21:49:54.823Z,54.17
2019-02-22T21:54:56.439Z,51.47
2019-02-22T21:59:57.987Z,55.73
2019-02-22T22:04:59.566Z,47.93
2019-02-22T22:10:01.584Z,62.67
2019-02-22T22:15:03.270Z,63.17
2019-02-22T22:20:04.839Z,58.93
2019-02-22T22:25:07.256Z,63.63
2019-02-22T22:30:09.620Z,63.37
2019-02-22T22:35:11.317Z,65.70
2019-02-22T22:40:12.889Z,64.90
2019-02-22T22:45:14.587Z,59.47
2019-02-22T22:50:16.123Z,69.13
2019-02-22T22:55:17.829Z,68.37
2019-02-22T23:00:35.672Z,58.40
2019-02-22T23:05:37.358Z,79.03
2019-02-22T23:10:38.882Z,78.00
2019-02-22T23:15:40.442Z,76.80
2019-02-22T23:20:42.330Z,75.40
2019-02-22T23:25:43.875Z,70.43
2019-02-22T23:30:45.477Z,67.83
2019-02-22T23:35:47.023Z,76.07
2019-02-22T23:40:48.591Z,82.40
2019-02-22T23:45:50.156Z,81.10
2019-02-22T23:50:51.709Z,83.33
2019-02-22T23:55:53.615Z,71.07
